createdAt,value
2022-10-20T00:02:26.074Z,39.17
2022-10-20T00:04:54.789Z,39.83
2022-10-20T00:07:30.253Z,41.77
2022-10-20T00:10:01.595Z,45.13
2022-10-20T00:12:32.327Z,39.10
2022-10-20T00:15:02.498Z,41.03
2022-10-20T00:17:31.145Z,41.53
2022-10-20T00:20:01.618Z,39.93
2022-10-20T00:22:35.135Z,37.67
2022-10-20T00:25:05.707Z,39.43
2022-10-20T00:27:34.478Z,40.73
2022-10-20T00:30:06.494Z,40.30
2022-10-20T00:32:36.984Z,38.97
2022-10-20T00:35:07.723Z,41.83
2022-10-20T00:37:39.208Z,46.23
2022-10-20T00:40:13.280Z,44.10
2022-10-20T00:42:50.708Z,37.73
2022-10-20T00:45:22.308Z,44.27
2022-10-20T00:47:57.423Z,41.10
2022-10-20T00:50:29.151Z,51.13
2022-10-20T00:53:00.381Z,42.67
2022-10-20T00:55:31.202Z,40.60
2022-10-20T00:58:02.171Z,41.37
2022-10-20T01:00:31.188Z,46.73
2022-10-20T01:03:01.966Z,42.40
2022-10-20T01:05:30.624Z,47.80
2022-10-20T01:08:01.836Z,41.70
2022-10-20T01:10:42.392Z,42.47
2022-10-20T01:13:21.272Z,51.40
2022-10-20T01:15:58.729Z,51.77
2022-10-20T01:18:35.555Z,49.40
2022-10-20T01:21:32.487Z,47.27
2022-10-20T01:24:19.117Z,48.37
2022-10-20T01:27:26.939Z,42.83
2022-10-20T01:30:00.033Z,43.13
2022-10-20T01:32:39.144Z,48.53
2022-10-20T01:35:15.500Z,47.60
2022-10-20T01:37:51.207Z,46.37
2022-10-20T01:40:27.969Z,43.03
2022-10-20T01:43:02.802Z,46.57
2022-10-20T01:46:18.261Z,49.33
2022-10-20T01:48:49.226Z,44.33
2022-10-20T01:51:17.887Z,75.30
2022-10-20T01:53:46.480Z,72.13
2022-10-20T01:56:19.958Z,72.57
2022-10-20T01:59:12.451Z,63.97
2022-10-20T02:01:56.223Z,58.03
2022-10-20T02:04:34.863Z,49.93
2022-10-20T02:07:13.371Z,52.67
2022-10-20T02:09:48.035Z,45.50
2022-10-20T02:12:23.855Z,54.80
2022-10-20T02:14:56.062Z,49.90
2022-10-20T02:17:24.893Z,50.93
2022-10-20T02:19:54.679Z,53.93
2022-10-20T02:22:24.529Z,56.73
2022-10-20T02:24:53.516Z,53.77
2022-10-20T02:27:26.154Z,51.03
2022-10-20T02:30:00.964Z,51.00
2022-10-20T02:32:31.592Z,53.57
2022-10-20T02:35:04.956Z,51.50
2022-10-20T02:37:36.138Z,49.43
2022-10-20T02:40:06.048Z,58.37
2022-10-20T02:42:34.630Z,45.33
2022-10-20T02:45:05.799Z,49.47
2022-10-20T02:47:34.990Z,54.70
2022-10-20T02:50:03.983Z,48.43
2022-10-20T02:52:32.691Z,53.43
2022-10-20T02:55:01.293Z,50.60
2022-10-20T02:57:30.052Z,44.70
2022-10-20T02:59:58.767Z,49.83
2022-10-20T03:02:28.812Z,49.03
2022-10-20T03:04:57.470Z,46.80
2022-10-20T03:07:26.151Z,44.10
2022-10-20T03:09:54.873Z,50.33
2022-10-20T03:12:23.454Z,48.67
2022-10-20T03:14:52.158Z,44.60
2022-10-20T03:17:20.765Z,49.43
2022-10-20T03:19:51.463Z,51.10
2022-10-20T03:22:20.374Z,52.20
2022-10-20T03:24:49.027Z,49.35
2022-10-20T03:27:17.778Z,46.23
2022-10-20T03:29:46.538Z,48.23
2022-10-20T03:32:15.252Z,51.87
2022-10-20T03:34:43.870Z,51.33
2022-10-20T03:37:14.273Z,45.50
2022-10-20T03:39:43.223Z,42.43
2022-10-20T03:42:12.194Z,45.60
2022-10-20T03:44:41.530Z,45.90
2022-10-20T03:47:11.082Z,38.97
2022-10-20T03:49:39.774Z,18.98
2022-10-20T03:52:09.174Z,41.90
2022-10-20T03:54:40.995Z,55.93
2022-10-20T03:57:09.637Z,52.00
2022-10-20T03:59:38.829Z,47.80
2022-10-20T04:02:07.584Z,42.03
2022-10-20T04:04:36.222Z,35.30
2022-10-20T04:07:04.929Z,36.27
2022-10-20T04:09:33.765Z,17.63
2022-10-20T04:12:03.810Z,35.23
2022-10-20T04:14:32.517Z,54.63
2022-10-20T04:17:01.233Z,50.80
2022-10-20T04:19:29.870Z,56.00
2022-10-20T04:21:58.528Z,33.88
2022-10-20T04:24:27.260Z,54.40
2022-10-20T04:26:55.944Z,76.23
2022-10-20T04:29:26.131Z,72.33
2022-10-20T04:31:54.717Z,63.30
2022-10-20T04:34:23.617Z,59.73
2022-10-20T04:36:52.699Z,44.77
2022-10-20T04:39:21.589Z,46.50
2022-10-20T04:41:50.436Z,50.23
2022-10-20T04:44:19.292Z,55.37
2022-10-20T04:46:49.526Z,48.43
2022-10-20T04:49:18.451Z,42.73
2022-10-20T04:51:47.504Z,40.80
2022-10-20T04:54:16.491Z,38.30
2022-10-20T04:56:45.226Z,38.43
2022-10-20T04:59:14.128Z,35.97
2022-10-20T05:01:43.123Z,34.03
2022-10-20T05:04:13.497Z,37.07
2022-10-20T05:06:42.303Z,34.53
2022-10-20T05:09:12.436Z,41.50
2022-10-20T05:11:41.320Z,42.87
2022-10-20T05:14:10.487Z,47.47
2022-10-20T05:16:39.436Z,46.23
2022-10-20T05:19:08.287Z,43.57
2022-10-20T05:21:38.752Z,39.23
2022-10-20T05:24:08.252Z,41.23
2022-10-20T05:26:37.640Z,39.10
2022-10-20T05:29:07.943Z,41.10
2022-10-20T05:31:39.071Z,43.77
2022-10-20T05:34:08.031Z,41.40
2022-10-20T05:36:38.427Z,44.37
2022-10-20T05:39:07.197Z,45.40
2022-10-20T05:41:38.828Z,43.33
2022-10-20T05:44:10.079Z,42.93
2022-10-20T05:46:41.881Z,45.73
2022-10-20T05:49:15.843Z,41.23
2022-10-20T05:51:47.222Z,41.27
2022-10-20T05:54:16.750Z,45.90
2022-10-20T05:56:45.932Z,48.30
2022-10-20T05:59:15.225Z,47.23
2022-10-20T06:01:49.302Z,50.77
2022-10-20T06:04:19.769Z,47.30
2022-10-20T06:06:49.838Z,52.50
2022-10-20T06:09:20.060Z,57.27
2022-10-20T06:11:49.068Z,70.60
2022-10-20T06:14:18.644Z,83.17
2022-10-20T06:16:47.324Z,75.17
2022-10-20T06:19:16.213Z,77.17
2022-10-20T06:21:44.891Z,80.20
2022-10-20T06:24:15.226Z,75.63
2022-10-20T06:26:45.307Z,69.73
2022-10-20T06:29:16.338Z,48.35
2022-10-20T06:31:46.708Z,53.13
2022-10-20T06:34:17.313Z,51.45
2022-10-20T06:36:46.662Z,45.80
2022-10-20T06:39:18.991Z,46.80
2022-10-20T06:41:50.512Z,49.60
2022-10-20T06:44:19.494Z,53.10
2022-10-20T06:46:48.227Z,55.57
2022-10-20T06:49:16.999Z,53.90
2022-10-20T06:51:45.742Z,52.43
2022-10-20T06:54:15.956Z,49.40
2022-10-20T06:56:44.623Z,49.23
2022-10-20T06:59:13.319Z,48.00
2022-10-20T07:01:42.470Z,47.93
2022-10-20T07:04:15.661Z,43.43
2022-10-20T07:06:46.132Z,41.13
2022-10-20T07:09:18.761Z,41.30
2022-10-20T07:11:47.805Z,44.87
2022-10-20T07:14:16.619Z,41.40
2022-10-20T07:16:45.396Z,41.53
2022-10-20T07:19:14.105Z,37.97
2022-10-20T07:21:45.477Z,38.10
2022-10-20T07:24:17.209Z,38.20
2022-10-20T07:26:46.062Z,31.73
2022-10-20T07:29:15.178Z,32.97
2022-10-20T07:31:45.508Z,31.40
2022-10-20T07:34:31.220Z,32.87
2022-10-20T07:37:00.178Z,32.13
2022-10-20T07:39:30.646Z,33.17
2022-10-20T07:41:59.385Z,37.17
2022-10-20T07:44:28.060Z,28.30
2022-10-20T07:46:56.721Z,31.03
2022-10-20T07:52:16.716Z,24.93
2022-10-20T07:54:47.594Z,21.83
2022-10-20T07:57:16.394Z,26.53
2022-10-20T07:59:45.218Z,20.87
2022-10-20T08:02:16.015Z,19.50
2022-10-20T08:04:45.955Z,19.77
2022-10-20T08:07:14.924Z,18.43
2022-10-20T08:12:15.314Z,17.77
2022-10-20T08:14:44.920Z,20.97
2022-10-20T08:17:13.699Z,22.43
2022-10-20T08:19:57.868Z,19.57
2022-10-20T08:22:26.507Z,16.27
2022-10-20T08:24:55.485Z,18.97
2022-10-20T08:27:25.753Z,24.27
2022-10-20T08:30:00.178Z,34.43
2022-10-20T08:32:35.455Z,18.57
2022-10-20T08:35:05.006Z,21.73
2022-10-20T08:37:34.658Z,24.47
2022-10-20T08:40:03.885Z,18.43
2022-10-20T08:42:40.929Z,21.10
2022-10-20T08:45:16.009Z,22.43
2022-10-20T08:47:47.369Z,17.73
2022-10-20T08:50:17.872Z,20.47
2022-10-20T08:52:49.405Z,36.43
2022-10-20T08:55:26.197Z,29.90
2022-10-20T08:58:02.100Z,22.03
2022-10-20T09:00:32.484Z,20.63
2022-10-20T09:03:12.456Z,27.60
2022-10-20T09:05:44.728Z,24.27
2022-10-20T09:08:13.430Z,23.13
2022-10-20T09:10:46.122Z,21.57
2022-10-20T09:13:23.815Z,20.83
2022-10-20T09:15:55.349Z,17.90
2022-10-20T09:18:24.145Z,20.97
2022-10-20T09:20:55.279Z,19.73
2022-10-20T09:23:40.494Z,18.90
2022-10-20T09:26:24.994Z,18.53
2022-10-20T09:29:13.886Z,18.30
2022-10-20T09:31:45.910Z,15.73
2022-10-20T09:34:26.272Z,16.23
2022-10-20T09:37:00.247Z,11.93
2022-10-20T09:39:31.211Z,12.70
2022-10-20T09:42:07.271Z,12.17
2022-10-20T09:44:50.756Z,13.17
2022-10-20T09:47:20.584Z,14.13
2022-10-20T09:49:58.441Z,12.73
2022-10-20T09:52:34.714Z,12.47
2022-10-20T09:55:06.135Z,12.27
2022-10-20T09:57:35.119Z,14.47
2022-10-20T10:00:25.165Z,12.20
2022-10-20T10:03:21.601Z,11.90
2022-10-20T10:05:55.312Z,12.93
2022-10-20T10:08:26.537Z,12.43
2022-10-20T10:11:06.283Z,10.43
2022-10-20T10:13:40.934Z,10.43
2022-10-20T10:16:14.402Z,11.70
2022-10-20T10:18:48.495Z,8.63
2022-10-20T10:21:18.260Z,11.30
2022-10-20T10:23:55.855Z,12.60
2022-10-20T10:26:54.983Z,10.37
2022-10-20T10:29:29.783Z,8.17
2022-10-20T10:32:04.102Z,6.93
2022-10-20T10:34:52.537Z,7.07
2022-10-20T10:39:57.012Z,10.17
2022-10-20T10:42:57.926Z,9.23
2022-10-20T10:45:45.413Z,13.73
2022-10-20T10:48:57.250Z,9.13
2022-10-20T10:51:43.071Z,6.13
2022-10-20T10:54:27.462Z,7.80
2022-10-20T10:57:00.519Z,11.43
2022-10-20T10:59:33.935Z,21.00
2022-10-20T11:02:23.106Z,11.23
2022-10-20T11:05:24.316Z,17.77
2022-10-20T11:08:05.931Z,9.63
2022-10-20T11:10:41.660Z,6.93
2022-10-20T11:13:31.860Z,13.10
2022-10-20T11:16:09.928Z,16.10
2022-10-20T11:18:55.810Z,14.20
2022-10-20T11:21:30.696Z,12.67
2022-10-20T11:24:13.306Z,16.20
2022-10-20T11:26:44.989Z,16.57
2022-10-20T11:29:20.958Z,14.20
2022-10-20T11:31:55.184Z,11.90
2022-10-20T11:34:31.275Z,19.83
2022-10-20T11:37:05.137Z,21.27
2022-10-20T11:39:44.342Z,26.40
2022-10-20T11:42:25.052Z,34.00
2022-10-20T11:44:55.805Z,29.50
2022-10-20T11:47:32.182Z,26.37
2022-10-20T11:50:01.345Z,25.47
2022-10-20T11:53:00.778Z,28.37
2022-10-20T11:56:05.965Z,25.10
2022-10-20T11:59:03.489Z,31.83
2022-10-20T12:04:52.962Z,44.40
2022-10-20T12:07:46.492Z,33.87
2022-10-20T12:10:42.124Z,40.30
2022-10-20T12:13:27.121Z,40.43
2022-10-20T12:15:55.987Z,47.97
2022-10-20T12:18:28.966Z,42.07
2022-10-20T12:21:01.769Z,47.40
2022-10-20T12:24:04.304Z,42.00
2022-10-20T12:27:17.891Z,46.07
2022-10-20T12:30:05.647Z,47.87
2022-10-20T12:32:57.831Z,40.93
2022-10-20T12:36:01.041Z,35.33
2022-10-20T12:38:32.334Z,32.87
2022-10-20T12:41:02.875Z,29.47
2022-10-20T12:43:37.072Z,25.63
2022-10-20T12:46:12.082Z,22.27
2022-10-20T12:48:47.108Z,15.20
2022-10-20T12:51:23.322Z,17.17
2022-10-20T12:54:02.159Z,16.47
2022-10-20T12:56:38.440Z,19.13
2022-10-20T12:59:46.702Z,19.93
2022-10-20T13:02:44.461Z,20.40
2022-10-20T13:05:43.112Z,17.60
2022-10-20T13:08:34.095Z,21.60
2022-10-20T13:11:41.082Z,15.97
2022-10-20T13:14:39.546Z,22.80
2022-10-20T13:17:19.478Z,31.40
2022-10-20T13:19:52.543Z,21.97
2022-10-20T13:22:46.951Z,25.50
2022-10-20T13:25:27.725Z,34.23
2022-10-20T13:28:13.940Z,29.73
2022-10-20T13:31:10.986Z,27.87
2022-10-20T13:36:50.635Z,31.87
2022-10-20T13:39:24.450Z,32.77
2022-10-20T13:42:01.238Z,30.60
2022-10-20T13:44:41.463Z,27.53
2022-10-20T13:47:29.477Z,29.33
2022-10-20T13:50:06.084Z,28.40
2022-10-20T13:52:39.826Z,31.00
2022-10-20T13:55:16.129Z,30.70
2022-10-20T13:57:55.568Z,38.70
2022-10-20T14:00:28.456Z,35.63
2022-10-20T14:03:00.264Z,37.47
2022-10-20T14:05:30.598Z,36.07
2022-10-20T14:08:06.171Z,39.83
2022-10-20T14:10:44.336Z,36.20
2022-10-20T14:13:17.511Z,37.70
2022-10-20T14:15:48.964Z,42.73
2022-10-20T14:18:24.806Z,44.67
2022-10-20T14:21:00.298Z,33.10
2022-10-20T14:23:35.819Z,32.97
2022-10-20T14:26:05.392Z,38.63
2022-10-20T14:28:36.843Z,38.30
2022-10-20T14:31:05.999Z,41.27
2022-10-20T14:33:39.015Z,36.47
2022-10-20T14:36:08.026Z,45.63
2022-10-20T14:38:39.316Z,36.47
2022-10-20T14:41:09.949Z,42.25
2022-10-20T14:43:42.093Z,22.87
2022-10-20T14:46:13.965Z,33.87
2022-10-20T14:48:46.126Z,119.37
2022-10-20T14:51:39.900Z,104.17
2022-10-20T14:54:27.738Z,58.90
2022-10-20T14:56:58.486Z,30.43
2022-10-20T14:59:28.771Z,32.53
2022-10-20T15:02:10.967Z,39.27
2022-10-20T15:04:41.475Z,29.10
2022-10-20T15:07:16.401Z,30.80
2022-10-20T15:09:48.587Z,28.67
2022-10-20T15:12:20.143Z,24.73
2022-10-20T15:14:51.176Z,43.25
2022-10-20T15:17:34.458Z,27.87
2022-10-20T15:20:32.512Z,28.53
2022-10-20T15:23:03.418Z,30.47
2022-10-20T15:25:38.895Z,32.23
2022-10-20T15:28:35.887Z,28.17
2022-10-20T15:31:06.614Z,33.67
2022-10-20T15:33:35.323Z,34.43
2022-10-20T15:36:04.025Z,41.40
2022-10-20T15:38:33.257Z,24.13
2022-10-20T15:41:03.380Z,17.70
2022-10-20T15:43:32.040Z,21.17
2022-10-20T15:46:00.722Z,18.23
2022-10-20T15:48:29.425Z,23.10
2022-10-20T15:50:59.406Z,23.63
2022-10-20T15:53:28.130Z,20.63
2022-10-20T15:55:56.851Z,20.87
2022-10-20T15:58:26.923Z,174.67
2022-10-20T16:00:55.592Z,182.87
2022-10-20T16:03:24.503Z,156.23
2022-10-20T16:05:53.164Z,73.77
2022-10-20T16:08:21.912Z,64.67
2022-10-20T16:10:50.609Z,29.90
2022-10-20T16:13:21.351Z,26.33
2022-10-20T16:15:51.563Z,23.13
2022-10-20T16:18:20.433Z,22.23
2022-10-20T16:20:49.075Z,26.10
2022-10-20T16:23:17.916Z,23.67
2022-10-20T16:25:46.569Z,25.83
2022-10-20T16:28:15.351Z,25.03
2022-10-20T16:30:44.062Z,23.67
2022-10-20T16:33:14.291Z,25.37
2022-10-20T16:35:43.609Z,32.73
2022-10-20T16:38:13.108Z,33.47
2022-10-20T16:40:41.706Z,39.70
2022-10-20T16:43:10.328Z,52.67
2022-10-20T16:45:41.175Z,53.33
2022-10-20T16:48:09.820Z,46.70
2022-10-20T16:50:44.579Z,38.73
2022-10-20T16:53:13.248Z,31.00
2022-10-20T16:55:41.986Z,29.07
2022-10-20T16:58:10.581Z,26.00
2022-10-20T17:00:39.301Z,27.60
2022-10-20T17:03:07.942Z,28.30
2022-10-20T17:05:36.604Z,39.33
2022-10-20T17:08:06.834Z,50.50
2022-10-20T17:10:35.586Z,36.10
2022-10-20T17:13:04.194Z,34.70
2022-10-20T17:15:32.897Z,36.60
2022-10-20T17:18:01.583Z,39.13
2022-10-20T17:20:30.263Z,34.47
2022-10-20T17:22:58.921Z,31.87
2022-10-20T17:25:28.952Z,32.80
2022-10-20T17:27:58.598Z,31.80
2022-10-20T17:30:27.266Z,32.73
2022-10-20T17:32:55.883Z,30.50
2022-10-20T17:35:24.555Z,30.03
2022-10-20T17:37:53.398Z,25.47
2022-10-20T17:40:22.435Z,25.77
2022-10-20T17:42:52.744Z,26.47
2022-10-20T17:45:21.769Z,29.20
2022-10-20T17:47:51.224Z,24.97
2022-10-20T17:50:19.895Z,25.70
2022-10-20T17:52:48.578Z,24.30
2022-10-20T17:55:17.378Z,29.13
2022-10-20T17:57:46.219Z,36.30
2022-10-20T18:00:23.117Z,26.73
2022-10-20T18:03:05.341Z,28.00
2022-10-20T18:05:37.438Z,33.03
2022-10-20T18:08:06.393Z,33.77
2022-10-20T18:10:35.449Z,40.90
2022-10-20T18:13:05.190Z,41.60
2022-10-20T18:15:35.441Z,46.53
2022-10-20T18:18:04.092Z,45.40
2022-10-20T18:20:34.351Z,50.07
2022-10-20T18:23:03.063Z,41.47
2022-10-20T18:25:31.825Z,48.73
2022-10-20T18:28:00.507Z,45.50
2022-10-20T18:30:29.131Z,61.33
2022-10-20T18:32:59.399Z,53.07
2022-10-20T18:35:28.344Z,49.40
2022-10-20T18:37:59.732Z,49.83
2022-10-20T18:40:28.402Z,42.63
2022-10-20T18:42:57.335Z,49.07
2022-10-20T18:45:26.281Z,46.97
2022-10-20T18:47:55.294Z,46.87
2022-10-20T18:50:25.337Z,44.67
2022-10-20T18:52:53.992Z,45.53
2022-10-20T18:55:25.681Z,45.37
2022-10-20T18:57:54.405Z,47.80
2022-10-20T19:00:23.201Z,45.43
2022-10-20T19:02:55.795Z,52.17
2022-10-20T19:05:28.225Z,51.37
2022-10-20T19:07:56.888Z,59.87
2022-10-20T19:10:25.492Z,60.80
2022-10-20T19:12:55.095Z,126.57
2022-10-20T19:15:24.220Z,113.77
2022-10-20T19:17:58.057Z,101.37
2022-10-20T19:20:35.174Z,77.53
2022-10-20T19:23:04.693Z,63.27
2022-10-20T19:25:35.811Z,53.10
2022-10-20T19:28:04.578Z,55.97
2022-10-20T19:30:36.067Z,54.07
2022-10-20T19:33:04.846Z,54.87
2022-10-20T19:35:35.515Z,55.63
2022-10-20T19:38:04.276Z,61.47
2022-10-20T19:40:34.092Z,53.90
2022-10-20T19:43:02.747Z,51.87
2022-10-20T19:45:31.546Z,56.40
2022-10-20T19:48:00.152Z,59.57
2022-10-20T19:50:28.884Z,67.70
2022-10-20T19:53:00.835Z,62.10
2022-10-20T19:55:32.100Z,66.50
2022-10-20T19:58:03.889Z,67.90
2022-10-20T20:00:35.060Z,63.97
2022-10-20T20:03:06.191Z,72.53
2022-10-20T20:05:34.857Z,64.53
2022-10-20T20:08:05.056Z,62.80
2022-10-20T20:10:34.644Z,57.22
2022-10-20T20:13:03.453Z,54.00
2022-10-20T20:15:32.227Z,54.20
2022-10-20T20:18:01.013Z,53.80
2022-10-20T20:20:29.719Z,58.43
2022-10-20T20:22:58.412Z,59.03
2022-10-20T20:25:28.547Z,65.97
2022-10-20T20:27:57.227Z,66.77
2022-10-20T20:30:25.849Z,58.10
2022-10-20T20:32:54.642Z,60.33
2022-10-20T20:35:23.459Z,59.97
2022-10-20T20:37:52.069Z,69.30
2022-10-20T20:40:20.801Z,66.63
2022-10-20T20:42:50.846Z,67.93
2022-10-20T20:45:19.531Z,76.20
2022-10-20T20:47:48.472Z,67.50
2022-10-20T20:50:17.262Z,78.43
2022-10-20T20:52:46.032Z,71.90
2022-10-20T20:55:14.658Z,79.47
2022-10-20T20:57:43.251Z,96.77
2022-10-20T21:00:14.732Z,81.20
2022-10-20T21:02:45.939Z,83.10
2022-10-20T21:05:15.443Z,89.53
2022-10-20T21:07:44.088Z,94.37
2022-10-20T21:10:12.738Z,104.73
2022-10-20T21:12:41.779Z,94.13
2022-10-20T21:15:12.541Z,102.60
2022-10-20T21:17:41.225Z,121.50
2022-10-20T21:20:11.138Z,101.17
2022-10-20T21:22:40.004Z,117.60
2022-10-20T21:25:09.470Z,122.07
2022-10-20T21:27:38.140Z,99.60
2022-10-20T21:30:07.530Z,107.57
2022-10-20T21:32:38.297Z,104.87
2022-10-20T21:35:08.178Z,115.30
2022-10-20T21:37:36.901Z,113.13
2022-10-20T21:40:10.143Z,102.47
2022-10-20T21:42:41.937Z,126.77
2022-10-20T21:45:14.349Z,119.80
2022-10-20T21:47:47.040Z,91.38
2022-10-20T21:50:15.940Z,84.67
2022-10-20T21:52:44.586Z,105.20
2022-10-20T21:55:13.280Z,110.67
2022-10-20T21:57:43.162Z,99.37
2022-10-20T22:00:12.910Z,96.63
2022-10-20T22:02:41.898Z,98.83
2022-10-20T22:05:12.126Z,98.77
2022-10-20T22:07:41.000Z,103.87
2022-10-20T22:10:10.519Z,96.17
2022-10-20T22:12:46.404Z,99.07
2022-10-20T22:15:15.436Z,102.97
2022-10-20T22:17:44.905Z,106.43
2022-10-20T22:20:16.014Z,109.07
2022-10-20T22:22:48.181Z,99.57
2022-10-20T22:25:16.919Z,103.67
2022-10-20T22:27:47.985Z,104.17
2022-10-20T22:30:17.188Z,102.10
2022-10-20T22:32:45.875Z,107.97
2022-10-20T22:35:16.172Z,101.40
2022-10-20T22:37:44.811Z,93.40
2022-10-20T22:40:14.457Z,92.30
2022-10-20T22:42:43.108Z,97.43
2022-10-20T22:45:12.558Z,98.10
2022-10-20T22:47:41.335Z,97.60
2022-10-20T22:50:10.170Z,89.70
2022-10-20T22:52:40.476Z,98.83
2022-10-20T22:55:10.039Z,90.30
2022-10-20T22:57:38.705Z,94.77
2022-10-20T23:00:13.033Z,90.20
2022-10-20T23:02:42.006Z,94.97
2022-10-20T23:05:11.690Z,104.53
2022-10-20T23:07:42.162Z,99.63
2022-10-20T23:10:11.652Z,96.70
2022-10-20T23:12:40.743Z,86.67
2022-10-20T23:15:10.112Z,88.83
2022-10-20T23:17:39.150Z,102.60
2022-10-20T23:20:08.659Z,90.40
2022-10-20T23:22:37.418Z,89.03
2022-10-20T23:25:08.528Z,97.00
2022-10-20T23:27:40.265Z,88.77
2022-10-20T23:30:15.796Z,83.10
2022-10-20T23:32:49.727Z,84.77
2022-10-20T23:35:18.324Z,86.23
2022-10-20T23:37:48.228Z,78.23
2022-10-20T23:40:18.492Z,85.80
2022-10-20T23:42:47.083Z,87.13
2022-10-20T23:45:15.818Z,82.43
2022-10-20T23:47:44.958Z,68.73
2022-10-20T23:50:13.668Z,81.03
2022-10-20T23:52:42.234Z,72.00
2022-10-20T23:55:14.649Z,75.53
2022-10-20T23:57:45.627Z,74.47
